createdAt,value
2023-01-15T00:01:20.812Z,96070.50
2023-01-15T00:03:23.376Z,96069.31
2023-01-15T00:05:27.317Z,96070.31
2023-01-15T00:07:30.370Z,96070.31
2023-01-15T00:09:33.041Z,96075.63
2023-01-15T00:11:35.833Z,96072.66
2023-01-15T00:13:38.427Z,96055.88
2023-01-15T00:15:41.019Z,96058.03
2023-01-15T00:17:43.564Z,96043.97
2023-01-15T00:19:46.112Z,96057.81
2023-01-15T00:21:50.012Z,96042.47
2023-01-15T00:24:10.407Z,96040.69
2023-01-15T00:26:32.695Z,96034.72
2023-01-15T00:28:35.276Z,96034.53
2023-01-15T00:30:41.483Z,96044.66
2023-01-15T00:32:45.843Z,96022.31
2023-01-15T00:34:48.380Z,96023.44
2023-01-15T00:36:52.243Z,96030.31
2023-01-15T00:38:54.839Z,96031.16
2023-01-15T00:40:57.391Z,96022.31
2023-01-15T00:43:02.615Z,96025.84
2023-01-15T00:45:10.049Z,96020.97
2023-01-15T00:47:14.936Z,96018.53
2023-01-15T00:49:17.865Z,96017.22
2023-01-15T00:51:20.415Z,96007.63
2023-01-15T00:53:24.426Z,96013.88
2023-01-15T00:55:30.031Z,96014.50
2023-01-15T00:57:32.621Z,96014.31
2023-01-15T00:59:38.114Z,96008.47
2023-01-15T01:01:40.874Z,95999.75
2023-01-15T01:03:48.943Z,95991.16
2023-01-15T01:05:51.773Z,96003.69
2023-01-15T01:07:54.370Z,96001.56
2023-01-15T01:09:58.254Z,95993.41
2023-01-15T01:12:00.766Z,95984.88
2023-01-15T01:14:03.338Z,95983.69
2023-01-15T01:16:19.050Z,95985.66
2023-01-15T01:18:21.637Z,95988.81
2023-01-15T01:20:24.184Z,95982.28
2023-01-15T01:22:26.736Z,95979.69
2023-01-15T01:24:29.283Z,95950.22
2023-01-15T01:26:33.635Z,95964.28
2023-01-15T01:28:36.216Z,95969.50
2023-01-15T01:30:39.655Z,95971.88
2023-01-15T01:32:45.276Z,95962.75
2023-01-15T01:34:47.839Z,95947.16
2023-01-15T01:36:50.395Z,95949.13
2023-01-15T01:38:53.099Z,95941.81
2023-01-15T01:40:55.735Z,95945.41
2023-01-15T01:42:59.659Z,95943.59
2023-01-15T01:45:07.753Z,95940.88
2023-01-15T01:47:15.404Z,95949.66
2023-01-15T01:49:17.986Z,95942.13
2023-01-15T01:51:25.354Z,95938.38
2023-01-15T01:53:29.965Z,95933.69
2023-01-15T01:55:35.539Z,95941.09
2023-01-15T01:57:39.672Z,95927.09
2023-01-15T01:59:44.225Z,95926.47
2023-01-15T02:01:47.373Z,95927.78
2023-01-15T02:03:50.172Z,95918.25
2023-01-15T02:05:56.541Z,95911.72
2023-01-15T02:07:59.386Z,95917.38
2023-01-15T02:10:01.968Z,95919.56
2023-01-15T02:12:12.608Z,95908.00
2023-01-15T02:14:22.328Z,95900.75
2023-01-15T02:16:31.484Z,95899.91
2023-01-15T02:18:41.541Z,95903.41
2023-01-15T02:20:49.147Z,95905.34
2023-01-15T02:23:04.404Z,95924.69
2023-01-15T02:25:18.455Z,95892.06
2023-01-15T02:27:24.679Z,95883.44
2023-01-15T02:29:34.926Z,95893.72
2023-01-15T02:31:40.149Z,95877.72
2023-01-15T02:33:48.791Z,95881.81
2023-01-15T02:35:57.830Z,95877.47
2023-01-15T02:38:03.673Z,95873.47
2023-01-15T02:40:08.593Z,95862.69
2023-01-15T02:42:13.224Z,95897.50
2023-01-15T02:44:19.585Z,95880.81
2023-01-15T02:46:26.750Z,95876.50
2023-01-15T02:48:32.027Z,95878.31
2023-01-15T02:50:39.213Z,95875.66
2023-01-15T02:52:45.347Z,95881.63
2023-01-15T02:54:52.239Z,95886.31
2023-01-15T02:56:58.112Z,95876.78
2023-01-15T02:59:06.987Z,95859.28
2023-01-15T03:01:15.567Z,95865.63
2023-01-15T03:03:25.227Z,95869.53
2023-01-15T03:05:32.138Z,95856.78
2023-01-15T03:07:41.723Z,95847.88
2023-01-15T03:09:44.827Z,95839.25
2023-01-15T03:11:53.736Z,95868.03
2023-01-15T03:14:03.811Z,95854.59
2023-01-15T03:16:32.315Z,95844.97
2023-01-15T03:18:40.326Z,95860.03
2023-01-15T03:20:48.548Z,95841.00
2023-01-15T03:22:55.048Z,95842.66
2023-01-15T03:25:04.094Z,95858.66
2023-01-15T03:27:07.704Z,95849.22
2023-01-15T03:29:11.908Z,95851.56
2023-01-15T03:31:16.212Z,95868.69
2023-01-15T03:33:19.519Z,95851.66
2023-01-15T03:35:46.866Z,95854.81
2023-01-15T03:37:49.543Z,95856.34
2023-01-15T03:39:53.545Z,95845.97
2023-01-15T03:42:07.826Z,95849.22
2023-01-15T03:44:20.765Z,95864.81
2023-01-15T03:46:49.756Z,95874.06
2023-01-15T03:49:00.037Z,95882.84
2023-01-15T03:51:09.586Z,95866.81
2023-01-15T03:53:16.717Z,95872.41
2023-01-15T03:55:23.339Z,95855.72
2023-01-15T03:57:35.360Z,95855.25
2023-01-15T03:59:45.702Z,95864.25
2023-01-15T04:01:51.573Z,95849.31
2023-01-15T04:03:55.125Z,95849.06
2023-01-15T04:06:00.217Z,95862.13
2023-01-15T04:08:04.264Z,95855.91
2023-01-15T04:10:09.196Z,95856.94
2023-01-15T04:12:12.355Z,95858.31
2023-01-15T04:14:15.892Z,95860.97
2023-01-15T04:16:25.030Z,95861.94
2023-01-15T04:18:29.718Z,95853.13
2023-01-15T04:20:32.314Z,95850.97
2023-01-15T04:22:36.039Z,95847.66
2023-01-15T04:24:38.700Z,95831.28
2023-01-15T04:26:41.282Z,95828.34
2023-01-15T04:28:44.034Z,95825.34
2023-01-15T04:30:47.329Z,95821.84
2023-01-15T04:32:50.542Z,95813.63
2023-01-15T04:34:54.454Z,95810.28
2023-01-15T04:36:58.066Z,95815.63
2023-01-15T04:39:00.649Z,95814.81
2023-01-15T04:41:21.486Z,95818.22
2023-01-15T04:43:41.410Z,95826.47
2023-01-15T04:45:44.495Z,95823.13
2023-01-15T04:47:47.102Z,95813.09
2023-01-15T04:49:49.879Z,95815.50
2023-01-15T04:51:56.277Z,95826.66
2023-01-15T04:54:02.042Z,95814.69
2023-01-15T04:56:05.711Z,95819.72
2023-01-15T04:58:08.607Z,95815.03
2023-01-15T05:00:12.494Z,95819.44
2023-01-15T05:02:15.583Z,95808.69
2023-01-15T05:04:18.389Z,95804.94
2023-01-15T05:06:20.998Z,95814.00
2023-01-15T05:08:24.892Z,95788.63
2023-01-15T05:10:27.505Z,95793.72
2023-01-15T05:12:30.058Z,95797.34
2023-01-15T05:14:32.620Z,95784.03
2023-01-15T05:16:38.093Z,95790.28
2023-01-15T05:18:40.777Z,95803.25
2023-01-15T05:20:44.680Z,95793.84
2023-01-15T05:22:47.253Z,95790.16
2023-01-15T05:24:51.293Z,95804.56
2023-01-15T05:26:55.156Z,95813.78
2023-01-15T05:28:59.242Z,95811.13
2023-01-15T05:31:07.613Z,95800.31
2023-01-15T05:33:10.218Z,95789.63
2023-01-15T05:35:12.775Z,95805.38
2023-01-15T05:37:15.411Z,95808.25
2023-01-15T05:39:18.106Z,95818.78
2023-01-15T05:41:41.062Z,95817.34
2023-01-15T05:43:43.645Z,95821.56
2023-01-15T05:45:46.201Z,95828.81
2023-01-15T05:47:48.773Z,95831.91
2023-01-15T05:49:51.418Z,95820.72
2023-01-15T05:51:54.889Z,95825.94
2023-01-15T05:53:58.536Z,95808.00
2023-01-15T05:56:01.991Z,95820.50
2023-01-15T05:58:05.865Z,95817.25
2023-01-15T06:00:09.920Z,95831.03
2023-01-15T06:02:12.477Z,95816.22
2023-01-15T06:04:15.750Z,95819.97
2023-01-15T06:06:19.413Z,95836.06
2023-01-15T06:08:22.314Z,95837.28
2023-01-15T06:10:24.865Z,95836.94
2023-01-15T06:12:27.459Z,95839.09
2023-01-15T06:14:31.325Z,95835.88
2023-01-15T06:16:34.750Z,95842.16
2023-01-15T06:18:37.472Z,95834.75
2023-01-15T06:20:41.046Z,95837.59
2023-01-15T06:22:43.623Z,95835.53
2023-01-15T06:24:46.209Z,95843.53
2023-01-15T06:26:48.805Z,95860.59
2023-01-15T06:28:51.707Z,95864.38
2023-01-15T06:30:55.651Z,95875.41
2023-01-15T06:32:58.323Z,95899.81
2023-01-15T06:35:00.900Z,95900.94
2023-01-15T06:37:03.458Z,95895.50
2023-01-15T06:39:06.009Z,95908.06
2023-01-15T06:41:27.256Z,95942.28
2023-01-15T06:43:47.554Z,95887.72
2023-01-15T06:46:07.880Z,95914.75
2023-01-15T06:48:11.834Z,95950.81
2023-01-15T06:50:15.731Z,95913.53
2023-01-15T06:52:18.322Z,95929.44
2023-01-15T06:54:20.882Z,95957.22
2023-01-15T06:56:23.499Z,95964.53
2023-01-15T06:58:26.099Z,95957.56
2023-01-15T07:00:28.712Z,95952.69
2023-01-15T07:02:31.309Z,95972.34
2023-01-15T07:04:35.194Z,95975.94
2023-01-15T07:06:37.909Z,96005.56
2023-01-15T07:08:41.219Z,95970.06
2023-01-15T07:10:43.824Z,95993.56
2023-01-15T07:12:46.410Z,96001.34
2023-01-15T07:14:48.973Z,95994.97
2023-01-15T07:16:52.632Z,95992.63
2023-01-15T07:18:56.176Z,96006.63
2023-01-15T07:21:00.465Z,96006.28
2023-01-15T07:23:02.978Z,96030.38
2023-01-15T07:25:06.775Z,96054.16
2023-01-15T07:27:09.359Z,96049.47
2023-01-15T07:29:12.326Z,96052.41
2023-01-15T07:31:14.892Z,96052.78
2023-01-15T07:33:17.573Z,96065.03
2023-01-15T07:35:20.119Z,96076.69
2023-01-15T07:37:24.032Z,96078.53
2023-01-15T07:39:26.583Z,96086.31
2023-01-15T07:41:47.597Z,96088.16
2023-01-15T07:44:07.653Z,96108.34
2023-01-15T07:46:30.009Z,96115.53
2023-01-15T07:48:50.020Z,96104.88
2023-01-15T07:50:52.601Z,96119.19
2023-01-15T07:52:56.527Z,96131.63
2023-01-15T07:54:59.133Z,96141.25
2023-01-15T07:57:01.860Z,96141.41
2023-01-15T07:59:04.464Z,96131.38
2023-01-15T08:01:07.439Z,96131.38
2023-01-15T08:03:10.074Z,96144.28
2023-01-15T08:05:12.895Z,96151.44
2023-01-15T08:07:16.358Z,96162.63
2023-01-15T08:09:20.370Z,96161.13
2023-01-15T08:11:40.441Z,96162.22
2023-01-15T08:14:00.803Z,96161.44
2023-01-15T08:16:03.358Z,96161.38
2023-01-15T08:18:07.028Z,96171.75
2023-01-15T08:20:14.025Z,96178.63
2023-01-15T08:22:16.561Z,96176.94
2023-01-15T08:24:20.640Z,96182.16
2023-01-15T08:26:23.276Z,96187.41
2023-01-15T08:28:25.835Z,96193.38
2023-01-15T08:30:28.395Z,96195.22
2023-01-15T08:32:31.041Z,96199.47
2023-01-15T08:34:33.692Z,96202.16
2023-01-15T08:36:36.411Z,96209.69
2023-01-15T08:38:38.946Z,96215.84
2023-01-15T08:40:56.870Z,96219.47
2023-01-15T08:42:59.441Z,96218.13
2023-01-15T08:45:02.085Z,96229.22
2023-01-15T08:47:04.729Z,96228.84
2023-01-15T08:49:07.248Z,96225.47
2023-01-15T08:51:11.507Z,96235.13
2023-01-15T08:53:14.132Z,96241.59
2023-01-15T08:55:17.014Z,96246.94
2023-01-15T08:57:20.997Z,96246.38
2023-01-15T08:59:23.831Z,96255.78
2023-01-15T09:01:26.503Z,96258.19
2023-01-15T09:03:29.078Z,96259.94
2023-01-15T09:05:31.735Z,96268.22
2023-01-15T09:07:35.364Z,96274.31
2023-01-15T09:09:37.987Z,96267.50
2023-01-15T09:11:41.520Z,96267.19
2023-01-15T09:13:46.686Z,96268.25
2023-01-15T09:15:49.216Z,96278.56
2023-01-15T09:17:51.897Z,96272.66
2023-01-15T09:19:54.636Z,96283.88
2023-01-15T09:21:57.234Z,96289.50
2023-01-15T09:23:59.948Z,96289.59
2023-01-15T09:26:06.226Z,96291.69
2023-01-15T09:28:08.972Z,96303.34
2023-01-15T09:30:18.665Z,96313.69
2023-01-15T09:32:24.273Z,96325.59
2023-01-15T09:34:26.833Z,96323.06
2023-01-15T09:36:31.368Z,96313.13
2023-01-15T09:38:35.123Z,96321.63
2023-01-15T09:40:47.420Z,96317.44
2023-01-15T09:42:56.338Z,96310.44
2023-01-15T09:45:20.159Z,96309.72
2023-01-15T09:47:30.803Z,96311.25
2023-01-15T09:49:50.000Z,96300.69
2023-01-15T09:52:03.777Z,96303.03
2023-01-15T09:54:21.269Z,96311.13
2023-01-15T09:56:27.762Z,96312.63
2023-01-15T09:58:35.285Z,96319.16
2023-01-15T10:00:47.058Z,96323.47
2023-01-15T10:02:53.885Z,96326.44
2023-01-15T10:05:01.053Z,96317.50
2023-01-15T10:07:12.465Z,96315.28
2023-01-15T10:09:19.065Z,96309.78
2023-01-15T10:11:46.539Z,96336.03
2023-01-15T10:13:54.205Z,96319.38
2023-01-15T10:15:59.266Z,96324.16
2023-01-15T10:18:01.898Z,96339.94
2023-01-15T10:20:04.834Z,96342.97
2023-01-15T10:22:12.894Z,96358.03
2023-01-15T10:24:20.053Z,96361.28
2023-01-15T10:26:32.389Z,96358.63
2023-01-15T10:28:50.493Z,96362.53
2023-01-15T10:30:55.961Z,96377.28
2023-01-15T10:33:14.741Z,96377.00
2023-01-15T10:35:32.192Z,96370.56
2023-01-15T10:37:42.047Z,96364.75
2023-01-15T10:39:52.594Z,96363.69
2023-01-15T10:42:06.405Z,96357.94
2023-01-15T10:44:16.137Z,96361.03
2023-01-15T10:46:21.303Z,96367.31
2023-01-15T10:48:32.481Z,96363.44
2023-01-15T10:50:36.243Z,96357.88
2023-01-15T10:52:44.800Z,96362.06
2023-01-15T10:54:52.250Z,96366.03
2023-01-15T10:57:02.086Z,96366.03
2023-01-15T10:59:13.553Z,96367.19
2023-01-15T11:01:19.947Z,96380.88
2023-01-15T11:03:31.197Z,96377.94
2023-01-15T11:05:35.375Z,96377.09
2023-01-15T11:08:03.231Z,96387.59
2023-01-15T11:10:08.611Z,96386.53
2023-01-15T11:12:38.725Z,96388.41
2023-01-15T11:15:00.578Z,96391.19
2023-01-15T11:17:21.249Z,96393.97
2023-01-15T11:19:38.558Z,96401.56
2023-01-15T11:21:43.353Z,96414.47
2023-01-15T11:23:46.522Z,96405.81
2023-01-15T11:25:51.681Z,96416.59
2023-01-15T11:27:54.418Z,96408.88
2023-01-15T11:29:59.294Z,96409.53
2023-01-15T11:32:01.843Z,96424.44
2023-01-15T11:34:06.216Z,96429.81
2023-01-15T11:36:22.802Z,96434.38
2023-01-15T11:38:26.585Z,96432.59
2023-01-15T11:40:29.208Z,96440.47
2023-01-15T11:42:49.682Z,96439.13
2023-01-15T11:45:12.002Z,96440.03
2023-01-15T11:47:37.308Z,96437.88
2023-01-15T11:49:57.636Z,96450.47
2023-01-15T11:52:04.129Z,96462.47
2023-01-15T11:54:11.179Z,96465.66
2023-01-15T11:56:17.461Z,96458.41
2023-01-15T11:58:20.415Z,96476.94
2023-01-15T12:00:25.756Z,96489.34
2023-01-15T12:02:38.067Z,96492.38
2023-01-15T12:04:51.191Z,96494.84
2023-01-15T12:06:54.283Z,96492.19
2023-01-15T12:09:07.078Z,96518.38
2023-01-15T12:11:27.186Z,96521.69
2023-01-15T12:13:33.985Z,96515.88
2023-01-15T12:15:43.094Z,96509.44
2023-01-15T12:18:15.458Z,96521.78
2023-01-15T12:20:25.368Z,96520.25
2023-01-15T12:22:42.423Z,96515.44
2023-01-15T12:25:14.512Z,96541.16
2023-01-15T12:27:32.044Z,96526.63
2023-01-15T12:29:40.537Z,96526.84
2023-01-15T12:31:48.610Z,96525.94
2023-01-15T12:33:55.948Z,96541.19
2023-01-15T12:36:03.860Z,96530.63
2023-01-15T12:38:16.542Z,96529.38
2023-01-15T12:40:26.542Z,96523.97
2023-01-15T12:42:48.854Z,96538.69
2023-01-15T12:45:08.898Z,96533.69
2023-01-15T12:47:17.759Z,96534.50
2023-01-15T12:49:33.542Z,96535.88
2023-01-15T12:51:44.055Z,96529.31
2023-01-15T12:53:52.557Z,96524.72
2023-01-15T12:56:01.159Z,96520.28
2023-01-15T12:58:07.100Z,96521.72
2023-01-15T13:00:15.021Z,96531.69
2023-01-15T13:02:23.131Z,96530.75
2023-01-15T13:04:33.556Z,96528.31
2023-01-15T13:06:40.531Z,96531.50
2023-01-15T13:08:51.776Z,96538.69
2023-01-15T13:10:56.538Z,96541.28
2023-01-15T13:13:10.811Z,96554.91
2023-01-15T13:15:17.604Z,96555.13
2023-01-15T13:17:30.416Z,96544.38
2023-01-15T13:19:40.752Z,96539.69
2023-01-15T13:21:46.708Z,96546.00
2023-01-15T13:24:07.906Z,96559.97
2023-01-15T13:26:22.027Z,96553.13
2023-01-15T13:28:36.530Z,96562.84
2023-01-15T13:30:52.120Z,96570.00
2023-01-15T13:32:59.260Z,96559.16
2023-01-15T13:35:09.971Z,96566.28
2023-01-15T13:37:21.378Z,96559.47
2023-01-15T13:39:29.334Z,96566.28
2023-01-15T13:41:53.167Z,96569.47
2023-01-15T13:44:07.091Z,96571.50
2023-01-15T13:46:12.967Z,96586.66
2023-01-15T13:48:19.429Z,96569.38
2023-01-15T13:50:30.892Z,96561.84
2023-01-15T13:52:35.772Z,96568.78
2023-01-15T13:54:43.144Z,96585.06
2023-01-15T13:56:47.071Z,96565.25
2023-01-15T13:58:54.536Z,96570.56
2023-01-15T14:01:24.391Z,96570.28
2023-01-15T14:03:28.862Z,96570.63
2023-01-15T14:05:34.092Z,96578.81
2023-01-15T14:07:38.280Z,96572.16
2023-01-15T14:09:41.504Z,96574.50
2023-01-15T14:12:01.748Z,96580.72
2023-01-15T14:14:34.422Z,96589.25
2023-01-15T14:16:54.876Z,96583.06
2023-01-15T14:19:19.034Z,96560.91
2023-01-15T14:21:35.135Z,96557.06
2023-01-15T14:23:53.448Z,96565.75
2023-01-15T14:26:08.019Z,96572.66
2023-01-15T14:28:35.344Z,96567.00
2023-01-15T14:31:06.145Z,96562.44
2023-01-15T14:33:20.282Z,96565.38
2023-01-15T14:35:25.195Z,96570.63
2023-01-15T14:37:31.635Z,96565.34
2023-01-15T14:39:43.798Z,96567.09
2023-01-15T14:42:00.391Z,96564.19
2023-01-15T14:44:04.576Z,96572.25
2023-01-15T14:46:16.296Z,96574.22
2023-01-15T14:48:21.358Z,96578.47
2023-01-15T14:50:34.670Z,96573.72
2023-01-15T14:52:37.412Z,96587.03
2023-01-15T14:54:40.935Z,96583.13
2023-01-15T14:56:46.342Z,96579.69
2023-01-15T14:58:54.431Z,96580.31
2023-01-15T15:01:02.501Z,96583.59
2023-01-15T15:03:15.456Z,96576.16
2023-01-15T15:05:20.069Z,96566.69
2023-01-15T15:07:25.591Z,96577.31
2023-01-15T15:09:35.057Z,96583.78
2023-01-15T15:12:02.595Z,96583.19
2023-01-15T15:14:08.030Z,96596.88
2023-01-15T15:16:18.939Z,96590.91
2023-01-15T15:18:29.916Z,96585.38
2023-01-15T15:20:44.542Z,96571.56
2023-01-15T15:22:50.521Z,96571.56
2023-01-15T15:24:55.847Z,96575.91
2023-01-15T15:26:58.413Z,96581.03
2023-01-15T15:29:02.641Z,96583.88
2023-01-15T15:31:05.530Z,96585.22
2023-01-15T15:33:19.428Z,96597.34
2023-01-15T15:35:27.032Z,96599.44
2023-01-15T15:37:30.817Z,96608.19
2023-01-15T15:39:42.242Z,96608.63
2023-01-15T15:42:06.506Z,96605.16
2023-01-15T15:44:32.779Z,96604.38
2023-01-15T15:46:55.407Z,96606.75
2023-01-15T15:48:59.455Z,96611.75
2023-01-15T15:51:02.955Z,96610.03
2023-01-15T15:53:06.834Z,96607.50
2023-01-15T15:55:16.873Z,96607.44
2023-01-15T15:57:21.241Z,96610.78
2023-01-15T15:59:31.375Z,96603.34
2023-01-15T16:01:38.769Z,96608.31
2023-01-15T16:03:48.470Z,96603.44
2023-01-15T16:05:59.870Z,96607.06
2023-01-15T16:08:17.318Z,96600.16
2023-01-15T16:10:25.353Z,96600.91
2023-01-15T16:12:31.244Z,96595.78
2023-01-15T16:14:37.025Z,96594.88
2023-01-15T16:16:40.166Z,96592.91
2023-01-15T16:18:45.536Z,96588.09
2023-01-15T16:20:48.193Z,96583.03
2023-01-15T16:22:56.935Z,96592.78
2023-01-15T16:25:00.145Z,96586.75
2023-01-15T16:27:07.561Z,96597.69
2023-01-15T16:29:19.479Z,96588.66
2023-01-15T16:31:23.056Z,96586.28
2023-01-15T16:33:26.449Z,96577.72
2023-01-15T16:35:30.449Z,96574.97
2023-01-15T16:37:35.374Z,96576.75
2023-01-15T16:39:41.545Z,96562.78
2023-01-15T16:41:44.408Z,96567.81
2023-01-15T16:43:54.358Z,96564.66
2023-01-15T16:46:03.461Z,96567.53
2023-01-15T16:48:27.388Z,96570.31
2023-01-15T16:50:32.722Z,96564.03
2023-01-15T16:52:37.603Z,96570.03
2023-01-15T16:54:48.357Z,96568.56
2023-01-15T16:56:54.340Z,96563.44
2023-01-15T16:58:56.899Z,96565.53
2023-01-15T17:00:59.542Z,96564.16
2023-01-15T17:03:02.114Z,96558.31
2023-01-15T17:05:16.084Z,96560.59
2023-01-15T17:07:24.369Z,96552.41
2023-01-15T17:09:27.497Z,96559.84
2023-01-15T17:11:37.355Z,96560.88
2023-01-15T17:13:41.570Z,96545.28
2023-01-15T17:15:44.171Z,96539.41
2023-01-15T17:17:48.014Z,96553.25
2023-01-15T17:19:51.358Z,96544.03
2023-01-15T17:21:53.916Z,96547.97
2023-01-15T17:23:59.804Z,96554.75
2023-01-15T17:26:03.974Z,96549.97
2023-01-15T17:28:12.671Z,96542.00
2023-01-15T17:30:16.470Z,96552.59
2023-01-15T17:32:25.277Z,96553.25
2023-01-15T17:34:27.854Z,96545.34
2023-01-15T17:36:31.398Z,96551.59
2023-01-15T17:38:33.951Z,96545.22
2023-01-15T17:40:36.509Z,96539.72
2023-01-15T17:42:39.111Z,96539.50
2023-01-15T17:44:43.035Z,96539.69
2023-01-15T17:46:45.644Z,96545.59
2023-01-15T17:48:48.310Z,96541.38
2023-01-15T17:50:50.850Z,96528.88
2023-01-15T17:52:53.400Z,96537.06
2023-01-15T17:55:13.969Z,96525.78
2023-01-15T17:57:36.308Z,96524.97
2023-01-15T17:59:56.355Z,96518.97
2023-01-15T18:02:17.719Z,96514.06
2023-01-15T18:04:42.923Z,96517.66
2023-01-15T18:06:49.360Z,96511.84
2023-01-15T18:08:56.711Z,96513.97
2023-01-15T18:10:59.289Z,96509.72
2023-01-15T18:13:03.644Z,96511.19
2023-01-15T18:15:07.431Z,96506.66
2023-01-15T18:17:11.611Z,96515.50
2023-01-15T18:19:14.280Z,96514.78
2023-01-15T18:21:16.842Z,96518.13
2023-01-15T18:23:19.545Z,96513.13
2023-01-15T18:25:22.113Z,96507.44
2023-01-15T18:27:29.786Z,96510.50
2023-01-15T18:29:32.352Z,96508.56
2023-01-15T18:31:37.480Z,96518.28
2023-01-15T18:33:41.600Z,96517.84
2023-01-15T18:35:44.175Z,96516.75
2023-01-15T18:37:46.740Z,96528.03
2023-01-15T18:39:49.843Z,96509.84
2023-01-15T18:42:10.271Z,96509.47
2023-01-15T18:44:32.248Z,96513.38
2023-01-15T18:46:48.746Z,96510.53
2023-01-15T18:48:52.833Z,96506.44
2023-01-15T18:50:55.825Z,96491.56
2023-01-15T18:52:58.415Z,96491.09
2023-01-15T18:55:01.547Z,96487.91
2023-01-15T18:57:04.441Z,96486.34
2023-01-15T18:59:08.725Z,96496.09
2023-01-15T19:01:11.395Z,96485.28
2023-01-15T19:03:14.065Z,96478.53
2023-01-15T19:05:19.703Z,96480.59
2023-01-15T19:07:22.283Z,96474.44
2023-01-15T19:09:25.142Z,96471.00
2023-01-15T19:11:28.025Z,96466.13
2023-01-15T19:13:30.532Z,96455.13
2023-01-15T19:15:50.650Z,96456.19
2023-01-15T19:18:19.113Z,96450.31
2023-01-15T19:20:23.107Z,96458.94
2023-01-15T19:22:43.318Z,96456.19
2023-01-15T19:24:46.911Z,96462.47
2023-01-15T19:26:49.536Z,96454.56
2023-01-15T19:28:52.103Z,96452.94
2023-01-15T19:31:11.444Z,96441.44
2023-01-15T19:33:14.031Z,96433.41
2023-01-15T19:35:16.740Z,96438.41
2023-01-15T19:37:20.938Z,96441.94
2023-01-15T19:39:23.529Z,96441.63
2023-01-15T19:41:43.511Z,96438.16
2023-01-15T19:44:11.940Z,96430.59
2023-01-15T19:46:32.198Z,96426.34
2023-01-15T19:48:52.694Z,96425.03
2023-01-15T19:50:55.354Z,96422.84
2023-01-15T19:52:59.295Z,96420.25
2023-01-15T19:55:03.101Z,96418.75
2023-01-15T19:57:05.611Z,96427.47
2023-01-15T19:59:08.617Z,96433.88
2023-01-15T20:01:15.731Z,96411.78
2023-01-15T20:03:18.473Z,96409.47
2023-01-15T20:05:21.623Z,96417.13
2023-01-15T20:07:24.215Z,96412.44
2023-01-15T20:09:28.106Z,96405.28
2023-01-15T20:11:50.857Z,96404.03
2023-01-15T20:13:53.471Z,96392.28
2023-01-15T20:15:55.993Z,96389.31
2023-01-15T20:17:58.987Z,96384.09
2023-01-15T20:20:01.594Z,96385.56
2023-01-15T20:22:04.139Z,96386.88
2023-01-15T20:24:07.543Z,96378.41
2023-01-15T20:26:14.633Z,96375.50
2023-01-15T20:28:17.299Z,96368.78
2023-01-15T20:30:21.776Z,96370.81
2023-01-15T20:32:24.356Z,96359.81
2023-01-15T20:34:27.061Z,96361.22
2023-01-15T20:36:33.973Z,96352.59
2023-01-15T20:38:36.567Z,96347.44
2023-01-15T20:40:39.226Z,96356.41
2023-01-15T20:43:00.916Z,96349.69
2023-01-15T20:45:08.087Z,96339.47
2023-01-15T20:47:37.186Z,96337.22
2023-01-15T20:49:38.770Z,96330.94
2023-01-15T20:51:41.579Z,96322.75
2023-01-15T20:53:44.189Z,96319.66
2023-01-15T20:55:56.838Z,96319.09
2023-01-15T20:58:01.451Z,96323.94
2023-01-15T21:00:07.808Z,96314.25
2023-01-15T21:02:13.179Z,96314.94
2023-01-15T21:04:15.859Z,96318.72
2023-01-15T21:06:18.514Z,96314.56
2023-01-15T21:08:21.586Z,96309.03
2023-01-15T21:10:25.316Z,96301.03
2023-01-15T21:12:28.224Z,96299.03
2023-01-15T21:14:32.098Z,96295.06
2023-01-15T21:16:34.773Z,96295.25
2023-01-15T21:18:37.404Z,96299.31
2023-01-15T21:20:40.160Z,96283.06
2023-01-15T21:22:43.258Z,96295.00
2023-01-15T21:24:46.731Z,96278.69
2023-01-15T21:26:49.365Z,96280.28
2023-01-15T21:28:54.264Z,96274.97
2023-01-15T21:31:00.155Z,96270.19
2023-01-15T21:33:02.686Z,96265.72
2023-01-15T21:35:05.670Z,96261.34
2023-01-15T21:37:08.257Z,96270.34
2023-01-15T21:39:12.450Z,96265.88
2023-01-15T21:41:16.009Z,96270.63
2023-01-15T21:43:37.125Z,96266.81
2023-01-15T21:45:39.930Z,96269.34
2023-01-15T21:47:44.539Z,96259.69
2023-01-15T21:49:47.450Z,96257.16
2023-01-15T21:51:50.044Z,96244.09
2023-01-15T21:53:52.627Z,96243.75
2023-01-15T21:55:55.159Z,96238.81
2023-01-15T21:57:59.483Z,96241.56
2023-01-15T22:00:02.125Z,96245.41
2023-01-15T22:02:05.428Z,96239.66
2023-01-15T22:04:09.447Z,96233.63
2023-01-15T22:06:12.133Z,96236.41
2023-01-15T22:08:16.419Z,96227.78
2023-01-15T22:10:19.039Z,96231.41
2023-01-15T22:12:21.683Z,96221.88
2023-01-15T22:14:26.716Z,96222.75
2023-01-15T22:16:29.305Z,96228.31
2023-01-15T22:18:32.825Z,96232.78
2023-01-15T22:20:36.710Z,96224.28
2023-01-15T22:22:39.588Z,96227.84
2023-01-15T22:24:42.180Z,96225.16
2023-01-15T22:26:48.988Z,96217.47
2023-01-15T22:28:51.828Z,96213.91
2023-01-15T22:30:54.424Z,96216.56
2023-01-15T22:32:58.922Z,96210.22
2023-01-15T22:35:01.555Z,96200.22
2023-01-15T22:37:05.638Z,96202.59
2023-01-15T22:39:08.246Z,96195.69
2023-01-15T22:41:11.117Z,96190.81
2023-01-15T22:43:12.752Z,96187.50
2023-01-15T22:45:15.312Z,96180.53
2023-01-15T22:47:18.110Z,96177.34
2023-01-15T22:49:21.014Z,96169.97
2023-01-15T22:51:23.654Z,96173.75
2023-01-15T22:53:27.540Z,96175.81
2023-01-15T22:55:30.139Z,96167.94
2023-01-15T22:57:32.713Z,96164.03
2023-01-15T22:59:35.244Z,96160.72
2023-01-15T23:01:37.996Z,96153.72
2023-01-15T23:03:41.284Z,96152.13
2023-01-15T23:05:43.911Z,96154.69
2023-01-15T23:07:46.550Z,96146.53
2023-01-15T23:09:50.426Z,96144.94
2023-01-15T23:11:53.084Z,96143.44
2023-01-15T23:13:56.016Z,96144.19
2023-01-15T23:15:59.260Z,96150.22
2023-01-15T23:18:01.958Z,96138.19
2023-01-15T23:20:05.219Z,96127.25
2023-01-15T23:22:07.823Z,96128.28
2023-01-15T23:24:10.646Z,96117.94
2023-01-15T23:26:17.378Z,96120.59
2023-01-15T23:28:19.943Z,96110.44
2023-01-15T23:30:22.540Z,96119.06
2023-01-15T23:32:25.098Z,96112.28
2023-01-15T23:34:27.768Z,96113.94
2023-01-15T23:36:30.400Z,96112.22
2023-01-15T23:38:33.082Z,96097.47
2023-01-15T23:40:35.659Z,96093.22
2023-01-15T23:42:57.127Z,96095.63
2023-01-15T23:45:17.142Z,96089.59
2023-01-15T23:47:19.793Z,96095.78
2023-01-15T23:49:22.330Z,96089.78
2023-01-15T23:51:24.874Z,96094.06
2023-01-15T23:53:27.424Z,96083.06
2023-01-15T23:55:30.243Z,96082.34
2023-01-15T23:57:32.822Z,96081.78
2023-01-15T23:59:36.767Z,96075.06
